Terminal Aerodrome Forecast
Issued by NWS Rapid City, SD

Home | Current Version | Previous Version | Text Only | Print | Product List | Glossary Off
Versions: 1 2 3 4 5 6 7 8 9 10 11 12 13 14 15

000
FTUS43 KUNR 241700
TAFRAP
TAF
KRAP 241736Z 2418/2518 20005KT P6SM BKN100
     FM250800 35011KT P6SM BKN070
     FM251000 35015KT P6SM OVC015
     FM251400 35018KT 2SM -SN OVC008=

USA.gov is the U.S. government's official web portal to all federal, state and local government web resources and services.